sensor_id;sensor_type;location;lat;lon;timestamp;P1;durP1;ratioP1;P2;durP2;ratioP2
11797;SDS011;5956;51.428;6.682;2023-02-08T00:01:30;19.53;;;11.73;;
11797;SDS011;5956;51.428;6.682;2023-02-08T00:03:57;15.57;;;11.73;;
11797;SDS011;5956;51.428;6.682;2023-02-08T00:06:24;16.00;;;11.83;;
11797;SDS011;5956;51.428;6.682;2023-02-08T00:08:50;13.00;;;11.10;;
11797;SDS011;5956;51.428;6.682;2023-02-08T00:11:18;18.90;;;12.30;;
11797;SDS011;5956;51.428;6.682;2023-02-08T00:13:45;16.53;;;12.00;;
11797;SDS011;5956;51.428;6.682;2023-02-08T00:16:11;14.70;;;11.27;;
11797;SDS011;5956;51.428;6.682;2023-02-08T00:18:38;16.33;;;12.17;;
11797;SDS011;5956;51.428;6.682;2023-02-08T00:21:06;15.57;;;11.17;;
11797;SDS011;5956;51.428;6.682;2023-02-08T00:23:32;16.80;;;11.90;;
11797;SDS011;5956;51.428;6.682;2023-02-08T00:25:59;16.90;;;11.57;;
11797;SDS011;5956;51.428;6.682;2023-02-08T00:28:27;15.93;;;11.67;;
11797;SDS011;5956;51.428;6.682;2023-02-08T00:30:53;14.90;;;11.47;;
11797;SDS011;5956;51.428;6.682;2023-02-08T00:33:20;15.67;;;12.33;;
11797;SDS011;5956;51.428;6.682;2023-02-08T00:35:46;14.07;;;10.77;;
11797;SDS011;5956;51.428;6.682;2023-02-08T00:38:13;13.77;;;10.87;;
11797;SDS011;5956;51.428;6.682;2023-02-08T00:40:40;12.27;;;10.50;;
11797;SDS011;5956;51.428;6.682;2023-02-08T00:43:06;14.57;;;10.50;;
11797;SDS011;5956;51.428;6.682;2023-02-08T00:45:34;14.17;;;10.60;;
11797;SDS011;5956;51.428;6.682;2023-02-08T00:48:01;14.53;;;11.60;;
11797;SDS011;5956;51.428;6.682;2023-02-08T00:50:27;13.30;;;11.77;;
11797;SDS011;5956;51.428;6.682;2023-02-08T00:52:54;13.70;;;10.97;;
11797;SDS011;5956;51.428;6.682;2023-02-08T00:55:20;13.83;;;11.03;;
11797;SDS011;5956;51.428;6.682;2023-02-08T00:57:47;14.97;;;11.70;;
11797;SDS011;5956;51.428;6.682;2023-02-08T01:00:13;16.73;;;12.70;;
11797;SDS011;5956;51.428;6.682;2023-02-08T01:02:41;12.47;;;11.17;;
11797;SDS011;5956;51.428;6.682;2023-02-08T01:05:08;13.57;;;10.73;;
11797;SDS011;5956;51.428;6.682;2023-02-08T01:07:35;16.37;;;11.20;;
11797;SDS011;5956;51.428;6.682;2023-02-08T01:10:03;12.70;;;11.17;;
11797;SDS011;5956;51.428;6.682;2023-02-08T01:12:29;11.80;;;10.20;;
11797;SDS011;5956;51.428;6.682;2023-02-08T01:14:56;12.67;;;10.33;;
11797;SDS011;5956;51.428;6.682;2023-02-08T01:17:22;14.20;;;10.17;;
11797;SDS011;5956;51.428;6.682;2023-02-08T01:19:50;10.70;;;9.57;;
11797;SDS011;5956;51.428;6.682;2023-02-08T01:22:17;12.53;;;10.63;;
11797;SDS011;5956;51.428;6.682;2023-02-08T01:24:44;11.30;;;9.97;;
11797;SDS011;5956;51.428;6.682;2023-02-08T01:27:10;14.57;;;9.43;;
11797;SDS011;5956;51.428;6.682;2023-02-08T01:29:37;13.57;;;10.97;;
11797;SDS011;5956;51.428;6.682;2023-02-08T01:32:03;12.10;;;9.97;;
11797;SDS011;5956;51.428;6.682;2023-02-08T01:34:30;13.07;;;10.13;;
11797;SDS011;5956;51.428;6.682;2023-02-08T01:36:58;11.03;;;9.83;;
11797;SDS011;5956;51.428;6.682;2023-02-08T01:39:24;12.07;;;10.30;;
11797;SDS011;5956;51.428;6.682;2023-02-08T01:41:51;12.57;;;9.73;;
11797;SDS011;5956;51.428;6.682;2023-02-08T01:54:19;13.30;;;10.27;;
11797;SDS011;5956;51.428;6.682;2023-02-08T01:56:47;12.10;;;8.93;;
11797;SDS011;5956;51.428;6.682;2023-02-08T01:59:16;13.27;;;10.30;;
11797;SDS011;5956;51.428;6.682;2023-02-08T02:01:43;14.80;;;9.97;;
11797;SDS011;5956;51.428;6.682;2023-02-08T02:04:11;12.50;;;10.33;;
11797;SDS011;5956;51.428;6.682;2023-02-08T02:06:39;11.47;;;9.67;;
11797;SDS011;5956;51.428;6.682;2023-02-08T02:09:09;12.30;;;9.53;;
11797;SDS011;5956;51.428;6.682;2023-02-08T02:11:38;11.30;;;10.10;;
11797;SDS011;5956;51.428;6.682;2023-02-08T02:14:05;11.30;;;9.63;;
11797;SDS011;5956;51.428;6.682;2023-02-08T02:16:32;12.13;;;9.93;;
11797;SDS011;5956;51.428;6.682;2023-02-08T02:18:58;10.77;;;9.27;;
11797;SDS011;5956;51.428;6.682;2023-02-08T02:21:29;14.13;;;9.80;;
11797;SDS011;5956;51.428;6.682;2023-02-08T02:24:12;10.97;;;9.73;;
11797;SDS011;5956;51.428;6.682;2023-02-08T02:34:31;13.97;;;9.73;;
11797;SDS011;5956;51.428;6.682;2023-02-08T02:37:01;10.63;;;8.90;;
11797;SDS011;5956;51.428;6.682;2023-02-08T02:39:31;9.87;;;8.87;;
11797;SDS011;5956;51.428;6.682;2023-02-08T02:42:04;11.47;;;9.23;;
11797;SDS011;5956;51.428;6.682;2023-02-08T02:44:51;12.50;;;8.87;;
11797;SDS011;5956;51.428;6.682;2023-02-08T02:47:21;10.90;;;9.33;;
11797;SDS011;5956;51.428;6.682;2023-02-08T02:49:50;10.40;;;9.03;;
11797;SDS011;5956;51.428;6.682;2023-02-08T02:52:17;10.87;;;9.77;;
11797;SDS011;5956;51.428;6.682;2023-02-08T02:54:46;10.93;;;8.63;;
11797;SDS011;5956;51.428;6.682;2023-02-08T02:57:15;12.40;;;9.97;;
11797;SDS011;5956;51.428;6.682;2023-02-08T02:59:42;10.40;;;9.27;;
11797;SDS011;5956;51.428;6.682;2023-02-08T03:02:11;13.47;;;9.03;;
11797;SDS011;5956;51.428;6.682;2023-02-08T03:07:24;15.10;;;9.63;;
11797;SDS011;5956;51.428;6.682;2023-02-08T03:09:56;11.90;;;9.87;;
11797;SDS011;5956;51.428;6.682;2023-02-08T03:12:28;15.53;;;10.07;;
11797;SDS011;5956;51.428;6.682;2023-02-08T03:14:57;11.67;;;9.73;;
11797;SDS011;5956;51.428;6.682;2023-02-08T03:17:30;12.60;;;9.83;;
11797;SDS011;5956;51.428;6.682;2023-02-08T03:20:02;13.77;;;9.37;;
11797;SDS011;5956;51.428;6.682;2023-02-08T03:22:33;13.10;;;9.83;;
11797;SDS011;5956;51.428;6.682;2023-02-08T03:25:02;14.13;;;8.87;;
11797;SDS011;5956;51.428;6.682;2023-02-08T03:27:32;13.20;;;9.83;;
11797;SDS011;5956;51.428;6.682;2023-02-08T03:30:00;12.20;;;10.23;;
11797;SDS011;5956;51.428;6.682;2023-02-08T03:32:31;14.20;;;10.10;;
11797;SDS011;5956;51.428;6.682;2023-02-08T03:35:02;11.87;;;9.40;;
11797;SDS011;5956;51.428;6.682;2023-02-08T03:37:30;9.80;;;8.80;;
11797;SDS011;5956;51.428;6.682;2023-02-08T03:40:01;12.43;;;9.80;;
11797;SDS011;5956;51.428;6.682;2023-02-08T03:42:29;12.07;;;9.93;;
11797;SDS011;5956;51.428;6.682;2023-02-08T03:44:59;11.70;;;9.27;;
11797;SDS011;5956;51.428;6.682;2023-02-08T03:47:27;10.57;;;9.27;;
11797;SDS011;5956;51.428;6.682;2023-02-08T03:49:56;12.60;;;10.03;;
11797;SDS011;5956;51.428;6.682;2023-02-08T03:52:24;10.70;;;9.60;;
11797;SDS011;5956;51.428;6.682;2023-02-08T03:54:52;11.77;;;9.63;;
11797;SDS011;5956;51.428;6.682;2023-02-08T03:57:21;11.97;;;9.80;;
11797;SDS011;5956;51.428;6.682;2023-02-08T03:59:50;11.07;;;9.77;;
11797;SDS011;5956;51.428;6.682;2023-02-08T04:02:19;10.33;;;8.87;;
11797;SDS011;5956;51.428;6.682;2023-02-08T04:04:47;14.43;;;10.47;;
11797;SDS011;5956;51.428;6.682;2023-02-08T04:07:15;12.93;;;9.80;;
11797;SDS011;5956;51.428;6.682;2023-02-08T04:09:42;11.60;;;9.50;;
11797;SDS011;5956;51.428;6.682;2023-02-08T04:12:08;11.53;;;9.37;;
11797;SDS011;5956;51.428;6.682;2023-02-08T04:14:36;11.37;;;9.27;;
11797;SDS011;5956;51.428;6.682;2023-02-08T04:17:03;13.90;;;9.40;;
11797;SDS011;5956;51.428;6.682;2023-02-08T04:19:29;10.50;;;8.63;;
11797;SDS011;5956;51.428;6.682;2023-02-08T04:21:56;14.07;;;9.40;;
11797;SDS011;5956;51.428;6.682;2023-02-08T04:24:23;13.13;;;10.27;;
11797;SDS011;5956;51.428;6.682;2023-02-08T04:26:49;12.27;;;9.63;;
11797;SDS011;5956;51.428;6.682;2023-02-08T04:29:16;10.97;;;9.13;;
11797;SDS011;5956;51.428;6.682;2023-02-08T04:31:44;11.80;;;9.80;;
11797;SDS011;5956;51.428;6.682;2023-02-08T04:34:11;12.40;;;9.87;;
11797;SDS011;5956;51.428;6.682;2023-02-08T04:36:37;10.90;;;8.70;;
11797;SDS011;5956;51.428;6.682;2023-02-08T04:39:04;12.37;;;10.03;;
11797;SDS011;5956;51.428;6.682;2023-02-08T04:41:30;13.10;;;10.10;;
11797;SDS011;5956;51.428;6.682;2023-02-08T04:43:57;11.63;;;9.43;;
11797;SDS011;5956;51.428;6.682;2023-02-08T04:46:24;12.73;;;10.13;;
11797;SDS011;5956;51.428;6.682;2023-02-08T04:48:52;12.80;;;10.10;;
11797;SDS011;5956;51.428;6.682;2023-02-08T04:51:18;15.10;;;10.43;;
11797;SDS011;5956;51.428;6.682;2023-02-08T04:53:45;12.40;;;10.80;;
11797;SDS011;5956;51.428;6.682;2023-02-08T04:56:11;12.07;;;10.00;;
11797;SDS011;5956;51.428;6.682;2023-02-08T04:58:38;11.47;;;10.00;;
11797;SDS011;5956;51.428;6.682;2023-02-08T05:01:05;14.07;;;10.10;;
11797;SDS011;5956;51.428;6.682;2023-02-08T05:03:31;14.03;;;11.07;;
11797;SDS011;5956;51.428;6.682;2023-02-08T05:05:59;12.43;;;10.47;;
11797;SDS011;5956;51.428;6.682;2023-02-08T05:08:26;14.03;;;11.03;;
11797;SDS011;5956;51.428;6.682;2023-02-08T05:10:53;17.50;;;12.20;;
11797;SDS011;5956;51.428;6.682;2023-02-08T05:13:20;16.77;;;11.17;;
11797;SDS011;5956;51.428;6.682;2023-02-08T05:15:46;13.70;;;10.83;;
11797;SDS011;5956;51.428;6.682;2023-02-08T05:18:13;14.03;;;10.10;;
11797;SDS011;5956;51.428;6.682;2023-02-08T05:20:39;14.30;;;10.20;;
11797;SDS011;5956;51.428;6.682;2023-02-08T05:23:07;15.40;;;12.00;;
11797;SDS011;5956;51.428;6.682;2023-02-08T05:25:34;15.13;;;11.00;;
11797;SDS011;5956;51.428;6.682;2023-02-08T05:28:00;15.90;;;12.07;;
11797;SDS011;5956;51.428;6.682;2023-02-08T05:30:27;15.37;;;11.70;;
11797;SDS011;5956;51.428;6.682;2023-02-08T05:32:54;15.07;;;11.83;;
11797;SDS011;5956;51.428;6.682;2023-02-08T05:35:20;15.70;;;12.13;;
11797;SDS011;5956;51.428;6.682;2023-02-08T05:37:47;18.00;;;13.37;;
11797;SDS011;5956;51.428;6.682;2023-02-08T05:40:15;16.53;;;13.77;;
11797;SDS011;5956;51.428;6.682;2023-02-08T05:42:41;17.50;;;11.80;;
11797;SDS011;5956;51.428;6.682;2023-02-08T05:45:08;18.53;;;13.17;;
11797;SDS011;5956;51.428;6.682;2023-02-08T05:47:35;14.60;;;12.10;;
11797;SDS011;5956;51.428;6.682;2023-02-08T05:50:01;15.23;;;12.10;;
11797;SDS011;5956;51.428;6.682;2023-02-08T05:52:28;15.93;;;13.07;;
11797;SDS011;5956;51.428;6.682;2023-02-08T05:54:55;14.47;;;12.00;;
11797;SDS011;5956;51.428;6.682;2023-02-08T05:57:23;13.80;;;12.23;;
11797;SDS011;5956;51.428;6.682;2023-02-08T05:59:49;13.20;;;11.10;;
11797;SDS011;5956;51.428;6.682;2023-02-08T06:02:16;19.43;;;13.70;;
11797;SDS011;5956;51.428;6.682;2023-02-08T06:04:42;17.30;;;13.93;;
11797;SDS011;5956;51.428;6.682;2023-02-08T06:07:10;24.00;;;19.93;;
11797;SDS011;5956;51.428;6.682;2023-02-08T06:09:36;27.37;;;21.30;;
11797;SDS011;5956;51.428;6.682;2023-02-08T06:12:03;24.37;;;20.33;;
11797;SDS011;5956;51.428;6.682;2023-02-08T06:14:31;23.47;;;20.37;;
11797;SDS011;5956;51.428;6.682;2023-02-08T06:16:57;26.20;;;20.77;;
11797;SDS011;5956;51.428;6.682;2023-02-08T06:19:24;24.73;;;21.57;;
11797;SDS011;5956;51.428;6.682;2023-02-08T06:21:51;26.23;;;20.37;;
11797;SDS011;5956;51.428;6.682;2023-02-08T06:24:17;32.63;;;22.17;;
11797;SDS011;5956;51.428;6.682;2023-02-08T06:26:44;29.77;;;23.67;;
11797;SDS011;5956;51.428;6.682;2023-02-08T06:29:11;28.57;;;23.10;;
11797;SDS011;5956;51.428;6.682;2023-02-08T06:31:39;29.27;;;24.93;;
11797;SDS011;5956;51.428;6.682;2023-02-08T06:34:05;30.30;;;24.80;;
11797;SDS011;5956;51.428;6.682;2023-02-08T06:36:32;30.13;;;25.37;;
11797;SDS011;5956;51.428;6.682;2023-02-08T06:38:58;32.90;;;25.73;;
11797;SDS011;5956;51.428;6.682;2023-02-08T06:41:25;30.27;;;26.63;;
11797;SDS011;5956;51.428;6.682;2023-02-08T06:43:51;31.23;;;27.10;;
11797;SDS011;5956;51.428;6.682;2023-02-08T06:46:18;34.90;;;26.37;;
11797;SDS011;5956;51.428;6.682;2023-02-08T06:48:45;31.93;;;26.83;;
11797;SDS011;5956;51.428;6.682;2023-02-08T06:51:12;27.40;;;23.03;;
11797;SDS011;5956;51.428;6.682;2023-02-08T06:53:39;29.87;;;24.33;;
11797;SDS011;5956;51.428;6.682;2023-02-08T06:56:05;27.73;;;24.80;;
11797;SDS011;5956;51.428;6.682;2023-02-08T06:58:32;31.03;;;25.20;;
11797;SDS011;5956;51.428;6.682;2023-02-08T07:00:58;30.07;;;25.53;;
11797;SDS011;5956;51.428;6.682;2023-02-08T07:03:25;27.67;;;23.50;;
11797;SDS011;5956;51.428;6.682;2023-02-08T07:05:53;30.37;;;26.90;;
11797;SDS011;5956;51.428;6.682;2023-02-08T07:08:19;30.00;;;25.60;;
11797;SDS011;5956;51.428;6.682;2023-02-08T07:10:46;30.30;;;27.07;;
11797;SDS011;5956;51.428;6.682;2023-02-08T07:13:13;25.57;;;22.67;;
11797;SDS011;5956;51.428;6.682;2023-02-08T07:15:39;28.17;;;25.23;;
11797;SDS011;5956;51.428;6.682;2023-02-08T07:18:06;27.57;;;23.97;;
11797;SDS011;5956;51.428;6.682;2023-02-08T07:20:32;23.57;;;21.07;;
11797;SDS011;5956;51.428;6.682;2023-02-08T07:23:00;24.83;;;21.17;;
11797;SDS011;5956;51.428;6.682;2023-02-08T07:25:27;21.13;;;19.03;;
11797;SDS011;5956;51.428;6.682;2023-02-08T07:27:53;20.30;;;17.17;;
11797;SDS011;5956;51.428;6.682;2023-02-08T07:30:20;22.23;;;19.00;;
11797;SDS011;5956;51.428;6.682;2023-02-08T07:32:47;21.73;;;17.63;;
11797;SDS011;5956;51.428;6.682;2023-02-08T07:35:13;21.17;;;18.40;;
11797;SDS011;5956;51.428;6.682;2023-02-08T07:37:40;20.40;;;17.93;;
11797;SDS011;5956;51.428;6.682;2023-02-08T07:40:08;24.43;;;19.83;;
11797;SDS011;5956;51.428;6.682;2023-02-08T07:42:34;23.83;;;21.07;;
11797;SDS011;5956;51.428;6.682;2023-02-08T07:45:01;27.00;;;21.37;;
11797;SDS011;5956;51.428;6.682;2023-02-08T07:47:28;25.67;;;22.20;;
11797;SDS011;5956;51.428;6.682;2023-02-08T07:49:54;26.70;;;22.57;;
11797;SDS011;5956;51.428;6.682;2023-02-08T07:52:21;29.00;;;25.47;;
11797;SDS011;5956;51.428;6.682;2023-02-08T07:54:47;27.67;;;23.20;;
11797;SDS011;5956;51.428;6.682;2023-02-08T07:57:15;31.17;;;25.10;;
11797;SDS011;5956;51.428;6.682;2023-02-08T07:59:45;33.00;;;27.00;;
11797;SDS011;5956;51.428;6.682;2023-02-08T08:02:12;31.47;;;28.07;;
11797;SDS011;5956;51.428;6.682;2023-02-08T08:04:39;29.03;;;25.63;;
11797;SDS011;5956;51.428;6.682;2023-02-08T08:07:05;29.50;;;26.37;;
11797;SDS011;5956;51.428;6.682;2023-02-08T08:09:32;31.60;;;27.97;;
11797;SDS011;5956;51.428;6.682;2023-02-08T08:11:58;30.27;;;26.33;;
11797;SDS011;5956;51.428;6.682;2023-02-08T08:14:27;29.87;;;26.67;;
11797;SDS011;5956;51.428;6.682;2023-02-08T08:16:54;29.87;;;26.43;;
11797;SDS011;5956;51.428;6.682;2023-02-08T08:19:20;32.07;;;27.87;;
11797;SDS011;5956;51.428;6.682;2023-02-08T08:21:47;35.63;;;29.07;;
11797;SDS011;5956;51.428;6.682;2023-02-08T08:24:13;34.27;;;28.73;;
11797;SDS011;5956;51.428;6.682;2023-02-08T08:26:40;31.47;;;26.63;;
11797;SDS011;5956;51.428;6.682;2023-02-08T08:29:06;32.83;;;26.57;;
11797;SDS011;5956;51.428;6.682;2023-02-08T08:31:34;27.87;;;23.13;;
11797;SDS011;5956;51.428;6.682;2023-02-08T08:34:02;23.10;;;19.37;;
11797;SDS011;5956;51.428;6.682;2023-02-08T08:36:29;23.03;;;18.27;;
11797;SDS011;5956;51.428;6.682;2023-02-08T08:38:55;22.83;;;18.47;;
11797;SDS011;5956;51.428;6.682;2023-02-08T08:41:22;26.50;;;20.00;;
11797;SDS011;5956;51.428;6.682;2023-02-08T08:43:51;21.10;;;16.07;;
11797;SDS011;5956;51.428;6.682;2023-02-08T08:46:18;18.07;;;13.50;;
11797;SDS011;5956;51.428;6.682;2023-02-08T08:48:46;18.53;;;13.60;;
11797;SDS011;5956;51.428;6.682;2023-02-08T08:51:12;16.73;;;12.70;;
11797;SDS011;5956;51.428;6.682;2023-02-08T08:53:39;18.20;;;14.87;;
11797;SDS011;5956;51.428;6.682;2023-02-08T08:56:05;14.53;;;11.57;;
11797;SDS011;5956;51.428;6.682;2023-02-08T08:58:32;16.40;;;10.67;;
11797;SDS011;5956;51.428;6.682;2023-02-08T09:00:59;12.90;;;9.60;;
11797;SDS011;5956;51.428;6.682;2023-02-08T09:03:26;10.53;;;9.20;;
11797;SDS011;5956;51.428;6.682;2023-02-08T09:05:54;9.77;;;8.77;;
11797;SDS011;5956;51.428;6.682;2023-02-08T09:08:21;10.63;;;8.93;;
11797;SDS011;5956;51.428;6.682;2023-02-08T09:10:47;12.07;;;8.77;;
11797;SDS011;5956;51.428;6.682;2023-02-08T09:13:14;9.80;;;7.60;;
11797;SDS011;5956;51.428;6.682;2023-02-08T09:15:43;8.67;;;7.17;;
11797;SDS011;5956;51.428;6.682;2023-02-08T09:18:10;10.57;;;6.80;;
11797;SDS011;5956;51.428;6.682;2023-02-08T09:20:37;7.93;;;6.70;;
11797;SDS011;5956;51.428;6.682;2023-02-08T09:23:05;8.97;;;6.97;;
11797;SDS011;5956;51.428;6.682;2023-02-08T09:25:31;8.77;;;6.90;;
11797;SDS011;5956;51.428;6.682;2023-02-08T09:27:58;9.47;;;6.40;;
11797;SDS011;5956;51.428;6.682;2023-02-08T09:30:24;11.87;;;8.00;;
11797;SDS011;5956;51.428;6.682;2023-02-08T09:32:51;9.77;;;7.47;;
11797;SDS011;5956;51.428;6.682;2023-02-08T09:35:18;9.83;;;7.20;;
11797;SDS011;5956;51.428;6.682;2023-02-08T09:37:44;9.97;;;7.13;;
11797;SDS011;5956;51.428;6.682;2023-02-08T09:40:18;7.97;;;6.47;;
11797;SDS011;5956;51.428;6.682;2023-02-08T09:42:46;7.67;;;6.37;;
11797;SDS011;5956;51.428;6.682;2023-02-08T09:45:21;8.30;;;6.13;;
11797;SDS011;5956;51.428;6.682;2023-02-08T09:47:49;7.57;;;6.10;;
11797;SDS011;5956;51.428;6.682;2023-02-08T09:50:20;7.20;;;6.20;;
11797;SDS011;5956;51.428;6.682;2023-02-08T09:52:51;8.77;;;5.40;;
11797;SDS011;5956;51.428;6.682;2023-02-08T09:55:23;10.83;;;5.70;;
11797;SDS011;5956;51.428;6.682;2023-02-08T09:57:52;8.33;;;6.07;;
11797;SDS011;5956;51.428;6.682;2023-02-08T10:00:23;6.83;;;5.70;;
11797;SDS011;5956;51.428;6.682;2023-02-08T10:02:50;7.03;;;5.40;;
11797;SDS011;5956;51.428;6.682;2023-02-08T10:05:19;6.20;;;5.03;;
11797;SDS011;5956;51.428;6.682;2023-02-08T10:07:46;6.73;;;5.23;;
11797;SDS011;5956;51.428;6.682;2023-02-08T10:10:13;6.57;;;5.00;;
11797;SDS011;5956;51.428;6.682;2023-02-08T10:12:44;8.07;;;5.20;;
11797;SDS011;5956;51.428;6.682;2023-02-08T10:15:19;6.90;;;4.87;;
11797;SDS011;5956;51.428;6.682;2023-02-08T10:17:59;6.17;;;5.53;;
11797;SDS011;5956;51.428;6.682;2023-02-08T10:20:30;6.77;;;5.30;;
11797;SDS011;5956;51.428;6.682;2023-02-08T10:23:00;9.60;;;5.97;;
11797;SDS011;5956;51.428;6.682;2023-02-08T10:25:32;5.60;;;4.87;;
11797;SDS011;5956;51.428;6.682;2023-02-08T10:28:10;9.30;;;5.50;;
11797;SDS011;5956;51.428;6.682;2023-02-08T10:30:40;5.60;;;5.10;;
11797;SDS011;5956;51.428;6.682;2023-02-08T10:33:14;8.53;;;5.50;;
11797;SDS011;5956;51.428;6.682;2023-02-08T10:35:43;5.80;;;5.27;;
11797;SDS011;5956;51.428;6.682;2023-02-08T10:38:16;8.93;;;7.60;;
11797;SDS011;5956;51.428;6.682;2023-02-08T10:40:48;6.50;;;5.90;;
11797;SDS011;5956;51.428;6.682;2023-02-08T10:43:18;5.93;;;4.93;;
11797;SDS011;5956;51.428;6.682;2023-02-08T10:45:49;5.87;;;5.30;;
11797;SDS011;5956;51.428;6.682;2023-02-08T10:48:19;9.20;;;5.27;;
11797;SDS011;5956;51.428;6.682;2023-02-08T10:50:48;5.40;;;4.90;;
11797;SDS011;5956;51.428;6.682;2023-02-08T10:53:15;8.13;;;7.13;;
11797;SDS011;5956;51.428;6.682;2023-02-08T10:55:44;5.70;;;5.10;;
11797;SDS011;5956;51.428;6.682;2023-02-08T10:58:12;8.17;;;5.47;;
11797;SDS011;5956;51.428;6.682;2023-02-08T11:00:41;5.23;;;4.73;;
11797;SDS011;5956;51.428;6.682;2023-02-08T11:03:12;5.20;;;4.70;;
11797;SDS011;5956;51.428;6.682;2023-02-08T11:05:39;5.13;;;4.63;;
11797;SDS011;5956;51.428;6.682;2023-02-08T11:08:07;5.77;;;5.10;;
11797;SDS011;5956;51.428;6.682;2023-02-08T11:10:34;6.97;;;4.90;;
11797;SDS011;5956;51.428;6.682;2023-02-08T11:13:01;5.00;;;4.60;;
11797;SDS011;5956;51.428;6.682;2023-02-08T11:15:33;7.27;;;4.47;;
11797;SDS011;5956;51.428;6.682;2023-02-08T11:18:03;8.17;;;4.60;;
11797;SDS011;5956;51.428;6.682;2023-02-08T11:20:32;4.70;;;4.30;;
11797;SDS011;5956;51.428;6.682;2023-02-08T11:23:01;6.50;;;3.60;;
11797;SDS011;5956;51.428;6.682;2023-02-08T11:25:29;4.37;;;4.07;;
11797;SDS011;5956;51.428;6.682;2023-02-08T11:27:56;3.87;;;3.57;;
11797;SDS011;5956;51.428;6.682;2023-02-08T11:30:24;5.40;;;4.10;;
11797;SDS011;5956;51.428;6.682;2023-02-08T11:35:33;5.30;;;4.60;;
11797;SDS011;5956;51.428;6.682;2023-02-08T11:38:01;6.97;;;5.17;;
11797;SDS011;5956;51.428;6.682;2023-02-08T11:40:33;5.10;;;4.60;;
11797;SDS011;5956;51.428;6.682;2023-02-08T11:43:00;6.80;;;4.73;;
11797;SDS011;5956;51.428;6.682;2023-02-08T11:45:28;8.23;;;4.50;;
11797;SDS011;5956;51.428;6.682;2023-02-08T11:47:55;7.87;;;5.03;;
11797;SDS011;5956;51.428;6.682;2023-02-08T11:50:23;6.83;;;5.10;;
11797;SDS011;5956;51.428;6.682;2023-02-08T11:52:53;7.20;;;5.20;;
11797;SDS011;5956;51.428;6.682;2023-02-08T11:55:23;8.33;;;5.63;;
11797;SDS011;5956;51.428;6.682;2023-02-08T11:57:50;7.43;;;5.43;;
11797;SDS011;5956;51.428;6.682;2023-02-08T12:00:18;6.27;;;4.97;;
11797;SDS011;5956;51.428;6.682;2023-02-08T12:02:45;4.95;;;4.55;;
11797;SDS011;5956;51.428;6.682;2023-02-08T12:05:12;5.28;;;4.63;;
11797;SDS011;5956;51.428;6.682;2023-02-08T12:07:43;4.75;;;3.92;;
11797;SDS011;5956;51.428;6.682;2023-02-08T12:10:23;5.50;;;5.00;;
11797;SDS011;5956;51.428;6.682;2023-02-08T12:12:57;5.15;;;4.70;;
11797;SDS011;5956;51.428;6.682;2023-02-08T12:15:28;6.93;;;4.80;;
11797;SDS011;5956;51.428;6.682;2023-02-08T12:17:59;5.78;;;4.53;;
11797;SDS011;5956;51.428;6.682;2023-02-08T12:20:32;5.03;;;4.63;;
11797;SDS011;5956;51.428;6.682;2023-02-08T12:23:02;6.38;;;4.93;;
11797;SDS011;5956;51.428;6.682;2023-02-08T12:25:34;14.35;;;12.85;;
11797;SDS011;5956;51.428;6.682;2023-02-08T12:28:07;5.63;;;5.13;;
11797;SDS011;5956;51.428;6.682;2023-02-08T12:30:36;5.07;;;4.65;;
11797;SDS011;5956;51.428;6.682;2023-02-08T12:33:10;4.80;;;4.43;;
11797;SDS011;5956;51.428;6.682;2023-02-08T12:35:45;5.05;;;4.63;;
11797;SDS011;5956;51.428;6.682;2023-02-08T12:38:13;5.22;;;4.70;;
11797;SDS011;5956;51.428;6.682;2023-02-08T12:40:59;4.95;;;4.35;;
11797;SDS011;5956;51.428;6.682;2023-02-08T12:43:35;6.25;;;4.93;;
11797;SDS011;5956;51.428;6.682;2023-02-08T12:46:08;5.22;;;4.72;;
11797;SDS011;5956;51.428;6.682;2023-02-08T12:48:39;4.82;;;4.43;;
11797;SDS011;5956;51.428;6.682;2023-02-08T12:51:12;5.15;;;4.75;;
11797;SDS011;5956;51.428;6.682;2023-02-08T12:53:45;5.68;;;4.68;;
11797;SDS011;5956;51.428;6.682;2023-02-08T12:56:14;4.65;;;4.25;;
11797;SDS011;5956;51.428;6.682;2023-02-08T12:58:43;5.90;;;5.40;;
11797;SDS011;5956;51.428;6.682;2023-02-08T13:01:12;5.97;;;5.47;;
11797;SDS011;5956;51.428;6.682;2023-02-08T13:03:43;14.32;;;11.18;;
11797;SDS011;5956;51.428;6.682;2023-02-08T13:06:15;6.22;;;5.13;;
11797;SDS011;5956;51.428;6.682;2023-02-08T13:08:44;8.18;;;5.15;;
11797;SDS011;5956;51.428;6.682;2023-02-08T13:11:16;5.10;;;4.68;;
11797;SDS011;5956;51.428;6.682;2023-02-08T13:13:44;4.95;;;4.40;;
11797;SDS011;5956;51.428;6.682;2023-02-08T13:16:16;5.53;;;5.03;;
11797;SDS011;5956;51.428;6.682;2023-02-08T13:18:46;5.60;;;5.10;;
11797;SDS011;5956;51.428;6.682;2023-02-08T13:21:15;5.57;;;5.00;;
11797;SDS011;5956;51.428;6.682;2023-02-08T13:23:44;4.70;;;4.30;;
11797;SDS011;5956;51.428;6.682;2023-02-08T13:26:12;4.50;;;4.10;;
11797;SDS011;5956;51.428;6.682;2023-02-08T13:28:41;4.97;;;4.57;;
11797;SDS011;5956;51.428;6.682;2023-02-08T13:31:12;4.68;;;4.28;;
11797;SDS011;5956;51.428;6.682;2023-02-08T13:33:40;5.00;;;4.50;;
11797;SDS011;5956;51.428;6.682;2023-02-08T13:36:15;5.00;;;4.50;;
11797;SDS011;5956;51.428;6.682;2023-02-08T13:38:45;4.45;;;4.15;;
11797;SDS011;5956;51.428;6.682;2023-02-08T13:41:13;5.00;;;4.47;;
11797;SDS011;5956;51.428;6.682;2023-02-08T13:43:45;4.97;;;4.47;;
11797;SDS011;5956;51.428;6.682;2023-02-08T13:46:13;5.03;;;4.63;;
11797;SDS011;5956;51.428;6.682;2023-02-08T13:48:42;6.65;;;4.55;;
11797;SDS011;5956;51.428;6.682;2023-02-08T14:01:30;6.10;;;4.97;;
11797;SDS011;5956;51.428;6.682;2023-02-08T14:11:35;4.35;;;3.95;;
11797;SDS011;5956;51.428;6.682;2023-02-08T14:14:12;4.47;;;4.07;;
11797;SDS011;5956;51.428;6.682;2023-02-08T14:16:42;5.43;;;4.45;;
11797;SDS011;5956;51.428;6.682;2023-02-08T14:19:19;4.28;;;3.90;;
11797;SDS011;5956;51.428;6.682;2023-02-08T14:21:47;4.68;;;4.28;;
11797;SDS011;5956;51.428;6.682;2023-02-08T14:24:19;5.25;;;4.63;;
11797;SDS011;5956;51.428;6.682;2023-02-08T14:26:46;4.90;;;4.45;;
11797;SDS011;5956;51.428;6.682;2023-02-08T14:29:18;4.75;;;4.30;;
11797;SDS011;5956;51.428;6.682;2023-02-08T14:31:47;5.32;;;4.25;;
11797;SDS011;5956;51.428;6.682;2023-02-08T14:34:19;7.40;;;4.70;;
11797;SDS011;5956;51.428;6.682;2023-02-08T14:36:52;5.03;;;4.60;;
11797;SDS011;5956;51.428;6.682;2023-02-08T14:39:24;5.40;;;4.70;;
11797;SDS011;5956;51.428;6.682;2023-02-08T14:41:53;4.85;;;4.45;;
11797;SDS011;5956;51.428;6.682;2023-02-08T14:47:10;5.70;;;4.30;;
11797;SDS011;5956;51.428;6.682;2023-02-08T14:49:38;5.47;;;4.18;;
11797;SDS011;5956;51.428;6.682;2023-02-08T14:52:09;4.88;;;4.18;;
11797;SDS011;5956;51.428;6.682;2023-02-08T14:54:36;4.30;;;3.90;;
11797;SDS011;5956;51.428;6.682;2023-02-08T14:57:05;4.90;;;4.50;;
11797;SDS011;5956;51.428;6.682;2023-02-08T14:59:33;5.40;;;4.25;;
11797;SDS011;5956;51.428;6.682;2023-02-08T15:02:00;6.25;;;4.20;;
11797;SDS011;5956;51.428;6.682;2023-02-08T15:04:30;4.82;;;4.32;;
11797;SDS011;5956;51.428;6.682;2023-02-08T15:07:01;4.53;;;4.13;;
11797;SDS011;5956;51.428;6.682;2023-02-08T15:09:33;8.13;;;7.35;;
11797;SDS011;5956;51.428;6.682;2023-02-08T15:12:04;4.35;;;3.95;;
11797;SDS011;5956;51.428;6.682;2023-02-08T15:14:35;4.60;;;4.03;;
11797;SDS011;5956;51.428;6.682;2023-02-08T15:17:02;5.30;;;4.43;;
11797;SDS011;5956;51.428;6.682;2023-02-08T15:19:30;3.60;;;3.10;;
11797;SDS011;5956;51.428;6.682;2023-02-08T15:24:47;4.93;;;3.93;;
11797;SDS011;5956;51.428;6.682;2023-02-08T15:27:18;5.40;;;3.83;;
11797;SDS011;5956;51.428;6.682;2023-02-08T15:29:46;3.60;;;3.27;;
11797;SDS011;5956;51.428;6.682;2023-02-08T15:32:13;6.40;;;3.17;;
11797;SDS011;5956;51.428;6.682;2023-02-08T15:34:43;4.33;;;3.17;;
11797;SDS011;5956;51.428;6.682;2023-02-08T15:37:12;3.77;;;3.03;;
11797;SDS011;5956;51.428;6.682;2023-02-08T15:39:41;3.73;;;3.43;;
11797;SDS011;5956;51.428;6.682;2023-02-08T15:42:14;3.57;;;3.27;;